• Join FlightAware (Why Join?)
  • Login
  • US Flag 
05:02AM EST


 

Airport Tracker/Info


-or-


 

Live Flight TrackerFlight Track Log ✈ TAM3147 ✈ 23-Sep-2013 ✈ SBVT / VIX - SBRJ / SDU

Flight Track Log - Related Links

Times and Time Zones

All times are in EDT time to prevent confusion due to time zone crossing. See the TAM3147 flight status page for this flight to view local times or setup timezone preferences in your user account.

Time Position Orientation Groundspeed Altitude Reporting Facility
EDT Latitude Longitude Course Direction KTS MPH feet Rate Location/Type
07:56AM -21.2942 -41.3914 225° Southwest  Level Estimated
07:57AM -21.3485 -41.4500 225° Southwest  Level Estimated
07:58AM -21.4028 -41.5086 225° Southwest  Level Estimated
07:59AM -21.4571 -41.5673 225° Southwest  Level Estimated
08:00AM -21.5114 -41.6260 225° Southwest  Level Estimated
08:01AM -21.5656 -41.6847 225° Southwest  Level Estimated
08:02AM -21.6199 -41.7435 225° Southwest  Level Estimated
08:03AM -21.6741 -41.8024 225° Southwest  Level Estimated
08:04AM -21.7283 -41.8613 225° Southwest  Level Estimated
08:05AM -21.7824 -41.9202 225° Southwest  Level Estimated
08:06AM -21.8366 -41.9792 225° Southwest  Level Estimated
08:07AM -21.8907 -42.0382 225° Southwest  Level Estimated
08:08AM -21.9448 -42.0973 225° Southwest  Level Estimated
08:09AM -21.9989 -42.1564 225° Southwest  Level Estimated
08:10AM -22.0530 -42.2155 225° Southwest  Level Estimated
08:11AM -22.1070 -42.2747 225° Southwest  Level Estimated
08:12AM -22.1610 -42.3340 225° Southwest  Level Estimated
08:13AM -22.2150 -42.3933 225° Southwest  Level Estimated
08:14AM -22.2690 -42.4526 225° Southwest  Level Estimated
08:15AM -22.3230 -42.5120 226° Southwest  Level Estimated
08:16AM -22.3769 -42.5714 226° Southwest  Level Estimated
08:17AM -22.4308 -42.6309 226° Southwest  Level Estimated
08:18AM -22.4847 -42.6904 226° Southwest  Level Estimated
08:19AM -22.5386 -42.7500 226° Southwest  Level Estimated
08:20AM -22.5924 -42.8096 226° Southwest  Level Estimated
08:21AM -22.6463 -42.8693 226° Southwest  Level Estimated
08:22AM -22.7001 -42.9290 226° Southwest  Level Estimated
08:23AM -22.7539 -42.9887 226° Southwest  Level Estimated
08:24AM -22.8076 -43.0485 226° Southwest  Level Estimated
08:25AM -22.8614 -43.1084 226° Southwest  Level Estimated
08:26AM -22.9105 -43.1631 226° Southwest  Level Estimated
08:27AM -22.9105 -43.1631 250° West  Level Estimated
08:28AM -22.9105 -43.1631 250° West  Level Estimated
08:29AM -22.9105 -43.1631 250° West  Level Estimated
08:30AM -22.9105 -43.1631 250° West  Level Estimated
08:31AM -22.9105 -43.1631 250° West  Level Estimated
08:32AM -22.9105 -43.1631 250° West  Level Estimated
08:33AM -22.9105 -43.1631 250° West  Level Estimated
08:34AM -22.9105 -43.1631 250° West  Level Estimated
08:35AM -22.9105 -43.1631 250° West  Level Estimated
08:36AM -22.9105 -43.1631 250° West  Level Estimated
08:37AM -22.9105 -43.1631 250° West  Level Estimated
08:38AM -22.9105 -43.1631 250° West  Level Estimated
08:39AM -22.9105 -43.1631 250° West  Level Estimated
08:40AM -22.9105 -43.1631 250° West  Level Estimated
08:41AM -22.9105 -43.1631 250° West  Level Estimated
08:42AM -22.9105 -43.1631 250° West  Level Estimated